Terminal Aerodrome Forecast
Issued by NWS Upton, NY

Home | Current Version | Previous Version | Text Only | Print | Product List | Glossary On
Versions: 1 2 3 4 5 6 7 8 9 10 11 12 13 14 15 16 17 18 19 20 21 22 23 24 25 26 27 28 29 30 31
710
FTUS41 KOKX 220234 AAA
TAFISP
TAF AMD
KISP 220234Z 2203/2224 21006KT P6SM SCT250
     FM220500 VRB03KT P6SM BKN250
     FM221300 15006KT P6SM BKN080
     FM221800 13008KT 6SM -SHRA BKN025 OVC050
     FM222200 11009KT 4SM -SHRA BR OVC012=

USA.gov is the U.S. government's official web portal to all federal, state and local government web resources and services.